createdAt,value
2022-07-28T00:01:18.450Z,4.27
2022-07-28T00:04:24.583Z,3.60
2022-07-28T00:07:27.904Z,4.00
2022-07-28T00:10:32.252Z,4.10
2022-07-28T00:13:35.316Z,3.93
2022-07-28T00:16:38.781Z,3.60
2022-07-28T00:19:43.404Z,4.10
2022-07-28T00:22:46.774Z,3.37
2022-07-28T00:25:49.893Z,4.57
2022-07-28T00:28:52.929Z,3.93
2022-07-28T00:31:56.095Z,3.93
2022-07-28T00:35:00.659Z,3.70
2022-07-28T00:38:05.446Z,3.70
2022-07-28T00:41:12.182Z,4.37
2022-07-28T00:44:15.776Z,4.50
2022-07-28T00:47:20.139Z,3.53
2022-07-28T00:50:24.527Z,3.70
2022-07-28T00:53:27.547Z,3.70
2022-07-28T00:56:30.609Z,4.23
2022-07-28T00:59:34.052Z,3.97
2022-07-28T01:02:37.355Z,3.67
2022-07-28T01:05:54.031Z,3.37
2022-07-28T01:09:07.865Z,3.60
2022-07-28T01:12:21.779Z,4.07
2022-07-28T01:15:31.387Z,3.97
2022-07-28T01:18:43.611Z,3.70
2022-07-28T01:21:49.800Z,4.07
2022-07-28T01:25:04.966Z,3.77
2022-07-28T01:28:25.904Z,4.07
2022-07-28T01:31:39.186Z,3.50
2022-07-28T01:34:50.499Z,4.07
2022-07-28T01:38:00.107Z,4.00
2022-07-28T01:41:05.497Z,3.83
2022-07-28T01:44:15.066Z,4.43
2022-07-28T01:47:21.215Z,3.80
2022-07-28T01:50:27.008Z,4.87
2022-07-28T01:53:37.687Z,3.53
2022-07-28T01:56:44.135Z,3.27
2022-07-28T01:59:49.208Z,5.17
2022-07-28T02:03:00.965Z,4.43
2022-07-28T02:06:06.495Z,3.83
2022-07-28T02:09:11.311Z,4.30
2022-07-28T02:12:16.856Z,4.20
2022-07-28T02:15:22.939Z,4.80
2022-07-28T02:18:28.568Z,5.03
2022-07-28T02:21:33.482Z,4.30
2022-07-28T02:24:42.098Z,4.33
2022-07-28T02:27:50.520Z,3.53
2022-07-28T02:31:02.928Z,4.77
2022-07-28T02:34:09.610Z,4.27
2022-07-28T02:37:17.066Z,4.20
2022-07-28T02:40:25.486Z,3.90
2022-07-28T02:43:49.777Z,3.97
2022-07-28T02:46:56.390Z,4.20
2022-07-28T02:50:04.896Z,4.27
2022-07-28T02:53:14.904Z,4.60
2022-07-28T02:56:19.839Z,4.67
2022-07-28T02:59:24.590Z,4.17
2022-07-28T03:02:31.008Z,4.33
2022-07-28T03:05:36.002Z,4.67
2022-07-28T03:08:39.305Z,4.10
2022-07-28T03:11:53.560Z,4.20
2022-07-28T03:14:56.754Z,4.70
2022-07-28T03:18:00.538Z,4.77
2022-07-28T03:21:05.201Z,5.23
2022-07-28T03:24:10.957Z,5.27
2022-07-28T03:27:22.988Z,5.40
2022-07-28T03:30:30.674Z,5.97
2022-07-28T03:33:34.527Z,4.70
2022-07-28T03:36:43.981Z,5.50
2022-07-28T03:39:49.526Z,4.77
2022-07-28T03:42:53.988Z,5.07
2022-07-28T03:45:57.142Z,5.67
2022-07-28T03:49:00.309Z,4.73
2022-07-28T03:52:05.138Z,4.63
2022-07-28T03:55:09.754Z,5.00
2022-07-28T03:58:12.832Z,4.37
2022-07-28T04:01:16.023Z,4.43
2022-07-28T04:04:19.176Z,4.67
2022-07-28T04:07:23.640Z,5.00
2022-07-28T04:10:27.118Z,5.33
2022-07-28T04:13:32.062Z,5.13
2022-07-28T04:16:36.145Z,4.73
2022-07-28T04:19:39.456Z,6.93
2022-07-28T04:22:44.234Z,7.87
2022-07-28T04:25:47.513Z,5.43
2022-07-28T04:28:50.594Z,5.37
2022-07-28T04:31:53.577Z,5.43
2022-07-28T04:34:57.380Z,6.40
2022-07-28T04:38:02.276Z,5.80
2022-07-28T04:41:05.816Z,7.97
2022-07-28T04:44:12.380Z,6.70
2022-07-28T04:47:16.498Z,6.90
2022-07-28T04:50:21.440Z,6.07
2022-07-28T04:53:35.160Z,5.30
2022-07-28T04:56:38.512Z,5.10
2022-07-28T04:59:41.669Z,4.80
2022-07-28T05:02:49.028Z,5.97
2022-07-28T05:05:54.530Z,5.93
2022-07-28T05:08:59.274Z,5.40
2022-07-28T05:12:02.259Z,4.53
2022-07-28T05:15:05.803Z,5.77
2022-07-28T05:18:09.030Z,5.80
2022-07-28T05:21:12.872Z,4.53
2022-07-28T05:24:19.543Z,5.30
2022-07-28T05:27:22.645Z,4.90
2022-07-28T05:30:25.745Z,4.70
2022-07-28T05:33:31.939Z,3.80
2022-07-28T05:36:36.525Z,4.00
2022-07-28T05:39:40.922Z,5.33
2022-07-28T05:42:44.808Z,4.10
2022-07-28T05:45:48.560Z,4.60
2022-07-28T05:48:51.943Z,4.70
2022-07-28T05:51:54.993Z,5.83
2022-07-28T05:54:59.503Z,4.83
2022-07-28T05:58:02.661Z,4.80
2022-07-28T06:01:06.079Z,3.90
2022-07-28T06:04:27.689Z,4.93
2022-07-28T06:07:43.297Z,4.30
2022-07-28T06:11:02.022Z,4.07
2022-07-28T06:14:05.195Z,4.00
2022-07-28T06:17:08.287Z,3.53
2022-07-28T06:20:13.617Z,4.47
2022-07-28T06:23:19.179Z,4.28
2022-07-28T06:26:23.934Z,4.90
2022-07-28T06:29:27.190Z,8.40
2022-07-28T06:32:30.183Z,9.10
2022-07-28T06:35:33.705Z,6.40
2022-07-28T06:38:51.954Z,4.05
2022-07-28T06:41:56.297Z,4.68
2022-07-28T06:45:00.173Z,4.60
2022-07-28T06:48:03.375Z,3.45
2022-07-28T06:51:06.709Z,3.22
2022-07-28T06:54:11.617Z,4.43
2022-07-28T06:57:16.909Z,3.40
2022-07-28T07:00:20.061Z,3.60
2022-07-28T07:03:23.265Z,3.58
2022-07-28T07:06:26.388Z,3.33
2022-07-28T07:09:29.776Z,3.90
2022-07-28T07:12:35.759Z,3.85
2022-07-28T07:15:38.874Z,3.42
2022-07-28T07:18:41.894Z,3.90
2022-07-28T07:21:44.989Z,3.40
2022-07-28T07:24:50.483Z,3.83
2022-07-28T07:27:58.034Z,3.50
2022-07-28T07:31:01.164Z,3.80
2022-07-28T07:34:04.874Z,3.63
2022-07-28T07:37:12.034Z,4.78
2022-07-28T07:40:15.136Z,3.60
2022-07-28T07:43:19.788Z,4.20
2022-07-28T07:46:23.273Z,5.10
2022-07-28T07:49:26.752Z,3.90
2022-07-28T07:52:50.094Z,3.85
2022-07-28T07:55:53.234Z,3.60
2022-07-28T07:58:58.721Z,3.38
2022-07-28T08:02:01.970Z,3.45
2022-07-28T08:05:06.154Z,3.83
2022-07-28T08:08:11.851Z,3.85
2022-07-28T08:11:14.862Z,4.20
2022-07-28T08:14:19.411Z,3.47
2022-07-28T08:17:25.857Z,3.78
2022-07-28T08:20:30.397Z,4.13
2022-07-28T08:23:33.391Z,3.33
2022-07-28T08:26:36.437Z,4.18
2022-07-28T08:29:40.857Z,3.85
2022-07-28T08:32:44.074Z,3.95
2022-07-28T08:36:00.105Z,3.90
2022-07-28T08:39:03.801Z,3.80
2022-07-28T08:42:16.110Z,3.75
2022-07-28T08:45:21.849Z,3.40
2022-07-28T08:48:29.530Z,3.40
2022-07-28T08:51:32.773Z,3.92
2022-07-28T08:54:36.238Z,3.47
2022-07-28T08:57:43.813Z,2.95
2022-07-28T09:00:49.177Z,3.25
2022-07-28T09:03:53.043Z,3.70
2022-07-28T09:06:57.052Z,3.05
2022-07-28T09:10:03.273Z,2.50
2022-07-28T09:13:06.508Z,2.70
2022-07-28T09:16:11.339Z,3.00
2022-07-28T09:19:15.913Z,2.90
2022-07-28T09:22:18.962Z,3.15
2022-07-28T09:25:22.696Z,3.20
2022-07-28T09:28:25.997Z,2.80
2022-07-28T09:31:31.473Z,3.35
2022-07-28T09:34:42.360Z,2.67
2022-07-28T09:37:46.420Z,3.25
2022-07-28T09:41:00.820Z,3.00
2022-07-28T09:44:03.951Z,2.78
2022-07-28T09:47:24.043Z,3.85
2022-07-28T09:50:30.241Z,3.67
2022-07-28T09:53:33.408Z,2.95
2022-07-28T09:56:37.777Z,2.90
2022-07-28T09:59:50.544Z,3.50
2022-07-28T10:02:58.402Z,3.47
2022-07-28T10:06:05.150Z,3.00
2022-07-28T10:09:12.583Z,2.88
2022-07-28T10:12:18.047Z,2.85
2022-07-28T10:15:46.824Z,3.00
2022-07-28T10:18:55.995Z,3.67
2022-07-28T10:21:59.865Z,3.05
2022-07-28T10:25:07.411Z,3.30
2022-07-28T10:28:18.276Z,2.85
2022-07-28T10:31:34.596Z,2.78
2022-07-28T10:34:45.615Z,3.60
2022-07-28T10:38:01.105Z,2.92
2022-07-28T10:41:08.508Z,3.13
2022-07-28T10:44:15.120Z,3.15
2022-07-28T10:47:20.758Z,2.47
2022-07-28T10:50:26.289Z,3.45
2022-07-28T10:53:39.611Z,2.97
2022-07-28T10:56:51.312Z,3.28
2022-07-28T11:00:13.108Z,2.70
2022-07-28T11:03:38.036Z,2.45
2022-07-28T11:06:45.798Z,3.03
2022-07-28T11:09:49.745Z,2.83
2022-07-28T11:12:54.830Z,3.08
2022-07-28T11:16:19.186Z,2.80
2022-07-28T11:19:36.754Z,2.85
2022-07-28T11:22:48.025Z,2.78
2022-07-28T11:26:38.451Z,2.28
2022-07-28T11:29:47.551Z,2.72
2022-07-28T11:33:00.140Z,2.13
2022-07-28T11:36:03.363Z,2.92
2022-07-28T11:39:27.862Z,2.63
2022-07-28T11:42:33.802Z,2.83
2022-07-28T11:45:39.900Z,2.53
2022-07-28T11:48:46.729Z,1.85
2022-07-28T11:52:24.309Z,2.45
2022-07-28T11:55:55.455Z,2.40
2022-07-28T11:58:59.847Z,2.50
2022-07-28T12:02:02.881Z,2.20
2022-07-28T12:05:15.718Z,2.20
2022-07-28T12:08:18.819Z,2.30
2022-07-28T12:11:27.463Z,2.60
2022-07-28T12:14:33.837Z,2.28
2022-07-28T12:17:40.581Z,2.30
2022-07-28T12:20:48.495Z,2.95
2022-07-28T12:23:55.422Z,2.50
2022-07-28T12:27:02.152Z,2.95
2022-07-28T12:30:06.733Z,2.60
2022-07-28T12:33:24.966Z,2.20
2022-07-28T12:36:32.218Z,2.30
2022-07-28T12:39:38.499Z,2.70
2022-07-28T12:42:45.353Z,2.30
2022-07-28T12:45:55.846Z,2.58
2022-07-28T12:49:01.351Z,2.47
2022-07-28T12:52:21.604Z,2.30
2022-07-28T12:55:29.419Z,2.10
2022-07-28T12:58:36.073Z,2.13
2022-07-28T13:01:50.663Z,2.53
2022-07-28T13:04:53.882Z,2.35
2022-07-28T13:08:02.419Z,1.92
2022-07-28T13:11:09.781Z,2.10
2022-07-28T13:14:17.814Z,2.80
2022-07-28T13:17:26.198Z,1.88
2022-07-28T13:20:29.749Z,2.42
2022-07-28T13:23:33.015Z,1.73
2022-07-28T13:26:36.015Z,2.03
2022-07-28T13:29:40.728Z,1.80
2022-07-28T13:32:44.202Z,2.22
2022-07-28T13:35:48.031Z,1.77
2022-07-28T13:38:51.182Z,2.05
2022-07-28T13:41:57.465Z,2.15
2022-07-28T13:45:03.251Z,1.73
2022-07-28T13:48:08.642Z,2.50
2022-07-28T13:51:13.171Z,1.75
2022-07-28T13:54:18.692Z,1.90
2022-07-28T13:57:22.277Z,2.08
2022-07-28T14:00:27.124Z,1.77
2022-07-28T14:03:55.703Z,2.72
2022-07-28T14:06:54.546Z,2.38
2022-07-28T14:09:58.385Z,2.10
2022-07-28T14:13:02.710Z,2.05
2022-07-28T14:16:12.346Z,2.78
2022-07-28T14:19:23.042Z,1.88
2022-07-28T14:22:31.060Z,2.08
2022-07-28T14:25:48.827Z,2.28
2022-07-28T14:28:52.776Z,1.90
2022-07-28T14:31:59.217Z,2.15
2022-07-28T14:35:02.735Z,1.80
2022-07-28T14:38:50.310Z,1.92
2022-07-28T14:41:31.809Z,1.70
2022-07-28T14:44:35.316Z,1.65
2022-07-28T14:47:44.658Z,1.98
2022-07-28T14:50:48.474Z,2.00
2022-07-28T14:53:52.340Z,1.63
2022-07-28T14:56:55.583Z,1.65
2022-07-28T14:59:59.545Z,1.67
2022-07-28T15:03:05.093Z,1.60
2022-07-28T15:06:08.219Z,1.90
2022-07-28T15:09:11.412Z,1.63
2022-07-28T15:12:14.429Z,1.98
2022-07-28T15:15:17.615Z,1.73
2022-07-28T15:18:22.083Z,1.85
2022-07-28T15:21:31.915Z,1.80
2022-07-28T15:24:41.402Z,1.95
2022-07-28T15:27:48.818Z,1.90
2022-07-28T15:30:52.974Z,2.00
2022-07-28T15:34:00.832Z,1.80
2022-07-28T15:37:04.098Z,1.58
2022-07-28T15:40:08.491Z,2.00
2022-07-28T15:43:11.454Z,1.60
2022-07-28T15:46:15.248Z,2.00
2022-07-28T15:49:19.795Z,1.60
2022-07-28T15:52:22.850Z,1.85
2022-07-28T15:55:26.063Z,1.58
2022-07-28T15:58:29.217Z,1.73
2022-07-28T16:01:32.249Z,1.83
2022-07-28T16:04:36.621Z,1.95
2022-07-28T16:07:50.323Z,2.03
2022-07-28T16:10:54.430Z,1.75
2022-07-28T16:13:58.222Z,1.80
2022-07-28T16:17:01.665Z,1.90
2022-07-28T16:20:10.308Z,1.90
2022-07-28T16:23:13.543Z,1.63
2022-07-28T16:26:16.574Z,1.98
2022-07-28T16:29:19.818Z,2.20
2022-07-28T16:32:22.830Z,1.67
2022-07-28T16:35:32.586Z,1.77
2022-07-28T16:38:36.184Z,2.10
2022-07-28T16:41:46.671Z,2.30
2022-07-28T16:44:51.122Z,2.00
2022-07-28T16:47:54.265Z,2.38
2022-07-28T16:50:58.725Z,1.70
2022-07-28T16:54:01.985Z,2.40
2022-07-28T16:57:05.753Z,1.83
2022-07-28T17:00:12.281Z,2.30
2022-07-28T17:03:16.335Z,2.00
2022-07-28T17:06:20.814Z,2.38
2022-07-28T17:09:23.835Z,2.63
2022-07-28T17:12:27.115Z,2.40
2022-07-28T17:15:30.217Z,2.55
2022-07-28T17:18:35.029Z,2.28
2022-07-28T17:21:40.006Z,2.45
2022-07-28T17:24:43.673Z,2.40
2022-07-28T17:27:48.500Z,1.92
2022-07-28T17:30:51.598Z,2.13
2022-07-28T17:33:54.646Z,2.55
2022-07-28T17:36:59.018Z,2.22
2022-07-28T17:40:04.602Z,2.13
2022-07-28T17:43:08.798Z,2.67
2022-07-28T17:46:11.827Z,2.42
2022-07-28T17:49:16.518Z,2.50
2022-07-28T17:52:22.055Z,2.58
2022-07-28T17:55:57.872Z,2.38
2022-07-28T17:59:02.322Z,2.70
2022-07-28T18:02:05.652Z,2.45
2022-07-28T18:05:11.295Z,2.00
2022-07-28T18:08:17.183Z,2.15
2022-07-28T18:11:20.229Z,2.15
2022-07-28T18:14:23.344Z,2.70
2022-07-28T18:17:27.071Z,2.80
2022-07-28T18:20:30.481Z,2.58
2022-07-28T18:23:35.509Z,2.60
2022-07-28T18:26:38.556Z,2.88
2022-07-28T18:29:41.685Z,2.90
2022-07-28T18:32:45.007Z,3.70
2022-07-28T18:35:48.097Z,2.95
2022-07-28T18:38:52.392Z,2.67
2022-07-28T18:41:55.955Z,3.08
2022-07-28T18:44:59.075Z,2.88
2022-07-28T18:48:04.225Z,2.90
2022-07-28T18:51:07.300Z,2.78
2022-07-28T18:54:11.730Z,2.70
2022-07-28T18:57:14.890Z,3.25
2022-07-28T19:00:18.277Z,3.03
2022-07-28T19:03:21.438Z,2.90
2022-07-28T19:06:24.529Z,3.38
2022-07-28T19:09:29.020Z,3.35
2022-07-28T19:12:40.066Z,3.65
2022-07-28T19:15:43.106Z,3.05
2022-07-28T19:18:46.288Z,3.58
2022-07-28T19:21:49.934Z,4.15
2022-07-28T19:24:55.061Z,3.60
2022-07-28T19:27:58.787Z,3.58
2022-07-28T19:31:10.241Z,3.33
2022-07-28T19:34:14.163Z,3.20
2022-07-28T19:37:18.755Z,3.03
2022-07-28T19:40:25.147Z,3.33
2022-07-28T19:43:28.188Z,3.38
2022-07-28T19:46:31.256Z,3.75
2022-07-28T19:49:34.307Z,4.85
2022-07-28T19:52:37.896Z,3.40
2022-07-28T19:55:43.891Z,3.97
2022-07-28T19:58:55.136Z,3.70
2022-07-28T20:01:58.624Z,4.10
2022-07-28T20:05:01.664Z,3.92
2022-07-28T20:08:05.171Z,3.50
2022-07-28T20:11:09.729Z,4.13
2022-07-28T20:14:12.961Z,3.25
2022-07-28T20:17:29.812Z,4.82
2022-07-28T20:20:39.238Z,3.75
2022-07-28T20:23:42.445Z,3.72
2022-07-28T20:26:46.958Z,3.70
2022-07-28T20:29:50.251Z,4.05
2022-07-28T20:32:53.326Z,4.07
2022-07-28T20:35:56.634Z,3.40
2022-07-28T20:39:00.643Z,4.20
2022-07-28T20:42:07.784Z,4.30
2022-07-28T20:45:11.451Z,4.50
2022-07-28T20:48:15.580Z,4.78
2022-07-28T20:51:18.901Z,3.35
2022-07-28T20:54:22.190Z,3.53
2022-07-28T20:57:26.614Z,3.35
2022-07-28T21:00:29.732Z,3.72
2022-07-28T21:03:32.726Z,3.35
2022-07-28T21:06:36.172Z,3.13
2022-07-28T21:09:40.910Z,3.47
2022-07-28T21:12:45.290Z,4.35
2022-07-28T21:15:48.415Z,3.95
2022-07-28T21:18:51.736Z,3.67
2022-07-28T21:21:54.775Z,2.38
2022-07-28T21:24:59.105Z,2.72
2022-07-28T21:28:21.159Z,3.05
2022-07-28T21:31:24.701Z,2.65
2022-07-28T21:34:28.034Z,4.35
2022-07-28T21:37:34.674Z,3.15
2022-07-28T21:40:38.980Z,3.15
2022-07-28T21:43:43.453Z,3.38
2022-07-28T21:46:46.552Z,3.78
2022-07-28T21:49:49.737Z,2.78
2022-07-28T21:52:52.875Z,3.72
2022-07-28T21:55:57.238Z,3.22
2022-07-28T21:59:02.337Z,3.45
2022-07-28T22:02:08.570Z,4.00
2022-07-28T22:05:11.733Z,3.15
2022-07-28T22:08:14.806Z,3.75
2022-07-28T22:11:17.878Z,3.28
2022-07-28T22:14:25.416Z,3.30
2022-07-28T22:17:28.644Z,3.13
2022-07-28T22:20:31.737Z,3.50
2022-07-28T22:23:34.932Z,3.20
2022-07-28T22:26:37.920Z,3.58
2022-07-28T22:29:43.447Z,3.05
2022-07-28T22:32:53.320Z,3.30
2022-07-28T22:35:56.482Z,4.18
2022-07-28T22:38:59.887Z,3.45
2022-07-28T22:42:03.686Z,3.08
2022-07-28T22:45:10.022Z,3.67
2022-07-28T22:48:13.386Z,3.30
2022-07-28T22:51:16.835Z,3.83
2022-07-28T22:54:19.927Z,4.25
2022-07-28T22:57:23.895Z,3.63
2022-07-28T23:00:28.212Z,3.75
2022-07-28T23:03:32.954Z,3.90
2022-07-28T23:06:36.221Z,4.28
2022-07-28T23:09:39.278Z,3.83
2022-07-28T23:12:42.712Z,4.20
2022-07-28T23:15:47.118Z,4.03
2022-07-28T23:18:50.126Z,3.90
2022-07-28T23:21:53.176Z,4.15
2022-07-28T23:24:56.239Z,4.05
2022-07-28T23:27:59.353Z,4.43
2022-07-28T23:31:03.979Z,4.40
2022-07-28T23:34:06.959Z,3.85
2022-07-28T23:37:10.164Z,3.95
2022-07-28T23:40:14.435Z,4.43
2022-07-28T23:43:17.475Z,4.40
2022-07-28T23:46:22.242Z,4.70
2022-07-28T23:49:25.472Z,3.95
2022-07-28T23:52:29.133Z,4.57
2022-07-28T23:55:32.223Z,5.88
2022-07-28T23:58:35.829Z,5.95
